Sunday, June 17, 2018, 10:07 PM EDT
Back to Local

KHWV, Shirley Brookhaven Airport

Location: Shirley, NY, United States Lat: 40.817
Local Time: 10:07 PM EDT ( 2:07 GMT) Lon: -72.867
Time Zone: US/Eastern Elev: 82 ft

Show me the last for .
Show Decoded

2018-06-17 20:56 METAR KHWV 180056Z AUTO 20006KT 10SM -RA CLR 22/18 A3008 RMK AO2 RAB40 SLP185
                 P0000 T02170178 TSNO =
2018-06-17 19:56 METAR KHWV 172356Z AUTO 20006KT 10SM CLR 22/17 A3008 RMK AO2 SLP185 T02220172
                 10289 20222 57002 TSNO =
2018-06-17 18:56 METAR KHWV 172256Z AUTO 20007KT 10SM CLR 24/17 A3009 RMK AO2 SLP187 T02390167
                 TSNO =
2018-06-17 17:56 METAR KHWV 172156Z AUTO 17008KT 10SM CLR 26/14 A3008 RMK AO2 SLP186 T02610139
                 TSNO =
2018-06-17 16:56 METAR KHWV 172056Z AUTO 18008KT 10SM CLR 27/13 A3009 RMK AO2 SLP188 T02670128
                 53005 TSNO =
2018-06-17 15:56 METAR KHWV 171956Z AUTO 19008KT 10SM CLR 28/14 A3008 RMK AO2 SLP183 T02830139
                 TSNO =
2018-06-17 14:56 METAR KHWV 171856Z AUTO 16006KT 10SM CLR 29/14 A3008 RMK AO2 SLP184 T02890144
                 TSNO =
2018-06-17 13:56 METAR KHWV 171756Z AUTO 16008KT 10SM CLR 28/14 A3007 RMK AO2 SLP183 T02830144
                 10306 20222 58008 TSNO =
2018-06-17 12:56 METAR KHWV 171656Z AUTO 18008KT 10SM CLR 28/16 A3009 RMK AO2 SLP187 T02830161
                 TSNO =
2018-06-17 11:56 METAR KHWV 171556Z AUTO 10SM CLR 31/12 A3009 RMK AO2 SLP188 T03060117 TSNO =
2018-06-17 10:56 METAR KHWV 171456Z AUTO 31005KT 10SM CLR 29/15 A3010 RMK AO2 SLP191 T02940150
                 53009 TSNO =
2018-06-17 09:56 METAR KHWV 171356Z AUTO 32003KT 10SM CLR 28/15 A3008 RMK AO2 SLP186 T02780150
                 TSNO =
2018-06-17 08:56 METAR KHWV 171256Z AUTO VRB03KT 10SM CLR 25/16 A3008 RMK AO2 SLP184 T02500156
                 TSNO =
2018-06-17 07:56 METAR KHWV 171156Z AUTO 34005KT 10SM CLR 22/16 A3007 RMK AO2 SLP183 T02220156
                 10222 20139 51012 TSNO =
2018-06-17 06:56 METAR KHWV 171056Z AUTO 00000KT 10SM CLR 18/17 A3007 RMK AO2 SLP180 T01830172
                 TSNO =
2018-06-17 05:56 METAR KHWV 170956Z AUTO 00000KT 10SM CLR 14/14 A3005 RMK AO2 SLP176 T01390139
                 TSNO =
2018-06-17 04:56 METAR KHWV 170856Z AUTO 00000KT 10SM CLR 14/14 A3004 RMK AO2 SLP171 T01440139
                 50000 TSNO =
2018-06-17 03:56 METAR KHWV 170756Z AUTO 00000KT 10SM CLR 15/14 A3004 RMK AO2 SLP172 T01500144
                 TSNO =
2018-06-17 02:56 METAR KHWV 170656Z AUTO 00000KT 10SM CLR 16/15 A3004 RMK AO2 SLP171 T01610150
                 TSNO =
2018-06-17 01:56 METAR KHWV 170556Z AUTO 20004KT 10SM CLR 18/15 A3004 RMK AO2 SLP171 T01830150
                 10217 20183 50001 TSNO =
2018-06-17 00:56 METAR KHWV 170456Z AUTO 21004KT 10SM CLR 19/14 A3005 RMK AO2 SLP176 T01890139
                 402830117 TSNO =
2018-06-16 23:56 METAR KHWV 170356Z AUTO 22003KT 10SM CLR 19/14 A3005 RMK AO2 SLP174 T01940139
                 TSNO =
2018-06-16 22:56 METAR KHWV 170256Z AUTO 21004KT 10SM CLR 19/13 A3004 RMK AO2 SLP170 T01940133
                 50010 TSNO =

Support USWX by starting your Amazon purchase here.